Terminal Aerodrome Forecast
Issued by NWS

Home | Current Version | Previous Version | Text Only | Print | Product List | Glossary On
Versions: 1 2 3 4 5 6 7 8 9 10 11 12 13 14 15 16 17 18 19 20 21 22 23 24 25 26 27 28 29 30 31 32 33
000
FTUS41 KOKX 280541
TAFHPN
TAF
KHPN 280541Z 2806/2906 VRB05KT 1/4SM DZ FG VV001
     FM281100 VRB04KT 3/4SM -DZ BR OVC004
     FM281300 VRB05KT P6SM FEW007 BKN060
     FM281500 29008KT P6SM SCT250
     FM281800 27009G14KT P6SM SCT250
     FM282200 26008KT P6SM SCT250
     FM290000 VRB03KT P6SM SCT250
      AMD NOT SKED=

USA.gov is the U.S. government's official web portal to all federal, state and local government web resources and services.